sensor_id;sensor_type;location;lat;lon;timestamp;P1;durP1;ratioP1;P2;durP2;ratioP2
7665;SDS011;3875;46.562;4.898;2022-08-20T00:00:20;2.70;;;2.30;;
7665;SDS011;3875;46.562;4.898;2022-08-20T00:02:48;5.20;;;2.73;;
7665;SDS011;3875;46.562;4.898;2022-08-20T00:05:24;2.80;;;2.30;;
7665;SDS011;3875;46.562;4.898;2022-08-20T00:07:52;2.70;;;2.50;;
7665;SDS011;3875;46.562;4.898;2022-08-20T00:10:19;4.57;;;2.30;;
7665;SDS011;3875;46.562;4.898;2022-08-20T00:12:46;2.63;;;2.20;;
7665;SDS011;3875;46.562;4.898;2022-08-20T00:15:14;3.80;;;2.67;;
7665;SDS011;3875;46.562;4.898;2022-08-20T00:17:41;3.00;;;2.40;;
7665;SDS011;3875;46.562;4.898;2022-08-20T00:20:08;4.67;;;2.70;;
7665;SDS011;3875;46.562;4.898;2022-08-20T00:22:36;2.10;;;2.00;;
7665;SDS011;3875;46.562;4.898;2022-08-20T00:25:05;2.63;;;2.20;;
7665;SDS011;3875;46.562;4.898;2022-08-20T00:27:32;2.47;;;2.27;;
7665;SDS011;3875;46.562;4.898;2022-08-20T00:29:57;2.40;;;2.30;;
7665;SDS011;3875;46.562;4.898;2022-08-20T00:32:23;3.00;;;2.30;;
7665;SDS011;3875;46.562;4.898;2022-08-20T00:34:49;2.27;;;2.07;;
7665;SDS011;3875;46.562;4.898;2022-08-20T00:37:15;2.40;;;1.77;;
7665;SDS011;3875;46.562;4.898;2022-08-20T00:39:40;2.07;;;1.97;;
7665;SDS011;3875;46.562;4.898;2022-08-20T00:42:06;3.43;;;2.27;;
7665;SDS011;3875;46.562;4.898;2022-08-20T00:44:32;2.37;;;2.10;;
7665;SDS011;3875;46.562;4.898;2022-08-20T00:46:59;2.07;;;1.97;;
7665;SDS011;3875;46.562;4.898;2022-08-20T00:49:27;4.40;;;2.50;;
7665;SDS011;3875;46.562;4.898;2022-08-20T00:54:51;2.30;;;2.10;;
7665;SDS011;3875;46.562;4.898;2022-08-20T00:57:21;2.10;;;1.93;;
7665;SDS011;3875;46.562;4.898;2022-08-20T00:59:52;2.13;;;1.80;;
7665;SDS011;3875;46.562;4.898;2022-08-20T01:02:19;4.40;;;2.00;;
7665;SDS011;3875;46.562;4.898;2022-08-20T01:04:47;4.07;;;2.00;;
7665;SDS011;3875;46.562;4.898;2022-08-20T01:07:22;3.47;;;1.70;;
7665;SDS011;3875;46.562;4.898;2022-08-20T01:12:44;2.10;;;1.90;;
7665;SDS011;3875;46.562;4.898;2022-08-20T01:15:12;2.93;;;2.00;;
7665;SDS011;3875;46.562;4.898;2022-08-20T01:17:45;2.93;;;1.97;;
7665;SDS011;3875;46.562;4.898;2022-08-20T01:20:31;2.07;;;1.60;;
7665;SDS011;3875;46.562;4.898;2022-08-20T01:31:14;5.10;;;1.90;;
7665;SDS011;3875;46.562;4.898;2022-08-20T01:33:43;1.87;;;1.70;;
7665;SDS011;3875;46.562;4.898;2022-08-20T01:36:09;1.60;;;1.50;;
7665;SDS011;3875;46.562;4.898;2022-08-20T01:38:36;2.30;;;2.00;;
7665;SDS011;3875;46.562;4.898;2022-08-20T01:43:46;3.23;;;1.33;;
7665;SDS011;3875;46.562;4.898;2022-08-20T01:46:13;2.93;;;1.53;;
7665;SDS011;3875;46.562;4.898;2022-08-20T01:48:39;2.67;;;1.47;;
7665;SDS011;3875;46.562;4.898;2022-08-20T01:51:13;1.50;;;1.40;;
7665;SDS011;3875;46.562;4.898;2022-08-20T01:53:48;2.10;;;1.27;;
7665;SDS011;3875;46.562;4.898;2022-08-20T01:56:19;2.60;;;1.43;;
7665;SDS011;3875;46.562;4.898;2022-08-20T01:58:50;2.97;;;1.50;;
7665;SDS011;3875;46.562;4.898;2022-08-20T02:01:21;1.30;;;1.20;;
7665;SDS011;3875;46.562;4.898;2022-08-20T02:03:53;1.60;;;1.20;;
7665;SDS011;3875;46.562;4.898;2022-08-20T02:06:20;2.33;;;1.50;;
7665;SDS011;3875;46.562;4.898;2022-08-20T02:08:50;2.63;;;1.10;;
7665;SDS011;3875;46.562;4.898;2022-08-20T02:11:17;1.23;;;1.13;;
7665;SDS011;3875;46.562;4.898;2022-08-20T02:13:43;1.57;;;1.30;;
7665;SDS011;3875;46.562;4.898;2022-08-20T02:16:09;1.47;;;1.37;;
7665;SDS011;3875;46.562;4.898;2022-08-20T02:18:34;1.50;;;1.03;;
7665;SDS011;3875;46.562;4.898;2022-08-20T02:21:00;1.47;;;1.07;;
7665;SDS011;3875;46.562;4.898;2022-08-20T02:23:27;1.10;;;1.03;;
7665;SDS011;3875;46.562;4.898;2022-08-20T02:25:52;2.60;;;1.30;;
7665;SDS011;3875;46.562;4.898;2022-08-20T02:28:18;1.30;;;1.20;;
7665;SDS011;3875;46.562;4.898;2022-08-20T02:30:46;0.97;;;0.97;;
7665;SDS011;3875;46.562;4.898;2022-08-20T02:33:15;1.20;;;1.10;;
7665;SDS011;3875;46.562;4.898;2022-08-20T02:35:43;1.00;;;1.00;;
7665;SDS011;3875;46.562;4.898;2022-08-20T02:38:11;1.10;;;1.00;;
7665;SDS011;3875;46.562;4.898;2022-08-20T02:40:37;1.63;;;1.30;;
7665;SDS011;3875;46.562;4.898;2022-08-20T02:43:04;0.90;;;0.90;;
7665;SDS011;3875;46.562;4.898;2022-08-20T02:45:31;1.60;;;1.37;;
7665;SDS011;3875;46.562;4.898;2022-08-20T02:48:07;1.20;;;1.13;;
7665;SDS011;3875;46.562;4.898;2022-08-20T02:50:44;1.23;;;1.13;;
7665;SDS011;3875;46.562;4.898;2022-08-20T02:53:14;1.17;;;1.07;;
7665;SDS011;3875;46.562;4.898;2022-08-20T02:55:40;1.40;;;1.30;;
7665;SDS011;3875;46.562;4.898;2022-08-20T02:58:06;1.23;;;1.00;;
7665;SDS011;3875;46.562;4.898;2022-08-20T03:00:31;0.90;;;0.90;;
7665;SDS011;3875;46.562;4.898;2022-08-20T03:02:58;0.93;;;0.93;;
7665;SDS011;3875;46.562;4.898;2022-08-20T03:05:24;1.10;;;1.10;;
7665;SDS011;3875;46.562;4.898;2022-08-20T03:07:50;1.00;;;1.00;;
7665;SDS011;3875;46.562;4.898;2022-08-20T03:10:24;1.13;;;0.90;;
7665;SDS011;3875;46.562;4.898;2022-08-20T03:12:53;2.20;;;1.27;;
7665;SDS011;3875;46.562;4.898;2022-08-20T03:15:19;1.00;;;1.00;;
7665;SDS011;3875;46.562;4.898;2022-08-20T03:17:45;1.00;;;0.90;;
7665;SDS011;3875;46.562;4.898;2022-08-20T03:20:11;1.20;;;1.10;;
7665;SDS011;3875;46.562;4.898;2022-08-20T03:22:37;1.17;;;1.00;;
7665;SDS011;3875;46.562;4.898;2022-08-20T03:25:03;1.00;;;1.00;;
7665;SDS011;3875;46.562;4.898;2022-08-20T03:27:29;1.33;;;1.20;;
7665;SDS011;3875;46.562;4.898;2022-08-20T03:29:55;1.63;;;1.00;;
7665;SDS011;3875;46.562;4.898;2022-08-20T03:32:21;1.90;;;0.90;;
7665;SDS011;3875;46.562;4.898;2022-08-20T03:34:47;1.13;;;1.03;;
7665;SDS011;3875;46.562;4.898;2022-08-20T03:37:12;0.90;;;0.90;;
7665;SDS011;3875;46.562;4.898;2022-08-20T03:39:38;0.90;;;0.90;;
7665;SDS011;3875;46.562;4.898;2022-08-20T03:42:04;1.40;;;1.00;;
7665;SDS011;3875;46.562;4.898;2022-08-20T03:44:30;1.10;;;0.90;;
7665;SDS011;3875;46.562;4.898;2022-08-20T03:46:56;1.23;;;0.90;;
7665;SDS011;3875;46.562;4.898;2022-08-20T03:49:22;2.10;;;0.80;;
7665;SDS011;3875;46.562;4.898;2022-08-20T03:51:48;1.47;;;1.20;;
7665;SDS011;3875;46.562;4.898;2022-08-20T03:54:15;1.13;;;0.90;;
7665;SDS011;3875;46.562;4.898;2022-08-20T03:56:41;2.57;;;1.30;;
7665;SDS011;3875;46.562;4.898;2022-08-20T03:59:07;1.83;;;1.00;;
7665;SDS011;3875;46.562;4.898;2022-08-20T04:01:32;1.17;;;1.00;;
7665;SDS011;3875;46.562;4.898;2022-08-20T04:03:58;1.17;;;1.07;;
7665;SDS011;3875;46.562;4.898;2022-08-20T04:06:25;1.37;;;0.97;;
7665;SDS011;3875;46.562;4.898;2022-08-20T04:08:53;1.43;;;1.07;;
7665;SDS011;3875;46.562;4.898;2022-08-20T04:11:19;0.80;;;0.80;;
7665;SDS011;3875;46.562;4.898;2022-08-20T04:13:45;1.30;;;1.20;;
7665;SDS011;3875;46.562;4.898;2022-08-20T04:16:10;1.10;;;1.00;;
7665;SDS011;3875;46.562;4.898;2022-08-20T04:18:36;1.90;;;0.93;;
7665;SDS011;3875;46.562;4.898;2022-08-20T04:21:02;1.33;;;0.90;;
7665;SDS011;3875;46.562;4.898;2022-08-20T04:23:29;1.10;;;1.00;;
7665;SDS011;3875;46.562;4.898;2022-08-20T04:25:55;1.30;;;1.20;;
7665;SDS011;3875;46.562;4.898;2022-08-20T04:28:22;3.10;;;1.10;;
7665;SDS011;3875;46.562;4.898;2022-08-20T04:30:50;1.17;;;1.07;;
7665;SDS011;3875;46.562;4.898;2022-08-20T04:33:17;1.00;;;1.00;;
7665;SDS011;3875;46.562;4.898;2022-08-20T04:35:44;1.57;;;1.00;;
7665;SDS011;3875;46.562;4.898;2022-08-20T04:38:10;0.90;;;0.90;;
7665;SDS011;3875;46.562;4.898;2022-08-20T04:40:40;1.40;;;1.00;;
7665;SDS011;3875;46.562;4.898;2022-08-20T04:43:26;1.60;;;1.10;;
7665;SDS011;3875;46.562;4.898;2022-08-20T04:45:53;1.50;;;1.00;;
7665;SDS011;3875;46.562;4.898;2022-08-20T04:48:21;2.93;;;0.93;;
7665;SDS011;3875;46.562;4.898;2022-08-20T04:50:48;1.77;;;0.87;;
7665;SDS011;3875;46.562;4.898;2022-08-20T04:53:15;1.23;;;1.13;;
7665;SDS011;3875;46.562;4.898;2022-08-20T04:55:43;1.07;;;0.90;;
7665;SDS011;3875;46.562;4.898;2022-08-20T04:58:17;1.57;;;1.00;;
7665;SDS011;3875;46.562;4.898;2022-08-20T05:00:46;0.83;;;0.83;;
7665;SDS011;3875;46.562;4.898;2022-08-20T05:03:13;2.00;;;1.10;;
7665;SDS011;3875;46.562;4.898;2022-08-20T05:05:40;1.30;;;1.13;;
7665;SDS011;3875;46.562;4.898;2022-08-20T05:08:06;2.43;;;1.30;;
7665;SDS011;3875;46.562;4.898;2022-08-20T05:10:32;1.10;;;1.00;;
7665;SDS011;3875;46.562;4.898;2022-08-20T05:12:58;1.03;;;1.00;;
7665;SDS011;3875;46.562;4.898;2022-08-20T05:15:24;2.67;;;1.27;;
7665;SDS011;3875;46.562;4.898;2022-08-20T05:17:53;2.07;;;0.90;;
7665;SDS011;3875;46.562;4.898;2022-08-20T05:20:20;1.83;;;0.90;;
7665;SDS011;3875;46.562;4.898;2022-08-20T05:22:47;1.00;;;1.00;;
7665;SDS011;3875;46.562;4.898;2022-08-20T05:25:12;1.37;;;1.17;;
7665;SDS011;3875;46.562;4.898;2022-08-20T05:27:38;1.07;;;0.93;;
7665;SDS011;3875;46.562;4.898;2022-08-20T05:30:08;1.70;;;1.20;;
7665;SDS011;3875;46.562;4.898;2022-08-20T05:32:36;1.10;;;1.10;;
7665;SDS011;3875;46.562;4.898;2022-08-20T05:35:03;2.33;;;1.90;;
7665;SDS011;3875;46.562;4.898;2022-08-20T05:37:33;6.70;;;4.40;;
7665;SDS011;3875;46.562;4.898;2022-08-20T05:40:00;8.73;;;5.13;;
7665;SDS011;3875;46.562;4.898;2022-08-20T05:42:26;4.87;;;3.60;;
7665;SDS011;3875;46.562;4.898;2022-08-20T05:44:53;2.80;;;2.07;;
7665;SDS011;3875;46.562;4.898;2022-08-20T05:47:18;2.13;;;1.27;;
7665;SDS011;3875;46.562;4.898;2022-08-20T05:49:52;1.13;;;1.07;;
7665;SDS011;3875;46.562;4.898;2022-08-20T05:52:17;4.17;;;1.40;;
7665;SDS011;3875;46.562;4.898;2022-08-20T05:54:43;3.00;;;1.10;;
7665;SDS011;3875;46.562;4.898;2022-08-20T05:57:08;2.10;;;1.70;;
7665;SDS011;3875;46.562;4.898;2022-08-20T05:59:34;1.67;;;1.13;;
7665;SDS011;3875;46.562;4.898;2022-08-20T06:02:01;0.90;;;0.90;;
7665;SDS011;3875;46.562;4.898;2022-08-20T06:04:47;1.63;;;1.10;;
7665;SDS011;3875;46.562;4.898;2022-08-20T06:07:12;4.50;;;1.37;;
7665;SDS011;3875;46.562;4.898;2022-08-20T06:09:39;2.10;;;1.53;;
7665;SDS011;3875;46.562;4.898;2022-08-20T06:12:05;1.50;;;1.40;;
7665;SDS011;3875;46.562;4.898;2022-08-20T06:14:33;1.07;;;0.97;;
7665;SDS011;3875;46.562;4.898;2022-08-20T06:17:08;1.30;;;1.00;;
7665;SDS011;3875;46.562;4.898;2022-08-20T06:19:36;1.20;;;1.10;;
7665;SDS011;3875;46.562;4.898;2022-08-20T06:22:03;1.60;;;0.90;;
7665;SDS011;3875;46.562;4.898;2022-08-20T06:24:29;1.17;;;1.10;;
7665;SDS011;3875;46.562;4.898;2022-08-20T06:26:56;1.53;;;1.43;;
7665;SDS011;3875;46.562;4.898;2022-08-20T06:29:23;1.40;;;1.30;;
7665;SDS011;3875;46.562;4.898;2022-08-20T06:31:48;2.43;;;1.37;;
7665;SDS011;3875;46.562;4.898;2022-08-20T06:34:14;2.03;;;1.50;;
7665;SDS011;3875;46.562;4.898;2022-08-20T06:36:40;1.70;;;1.10;;
7665;SDS011;3875;46.562;4.898;2022-08-20T06:39:06;3.70;;;1.30;;
7665;SDS011;3875;46.562;4.898;2022-08-20T06:41:32;1.53;;;1.43;;
7665;SDS011;3875;46.562;4.898;2022-08-20T06:43:59;1.70;;;1.30;;
7665;SDS011;3875;46.562;4.898;2022-08-20T06:46:24;1.50;;;1.40;;
7665;SDS011;3875;46.562;4.898;2022-08-20T06:48:50;1.30;;;1.20;;
7665;SDS011;3875;46.562;4.898;2022-08-20T06:51:15;1.63;;;1.50;;
7665;SDS011;3875;46.562;4.898;2022-08-20T06:53:41;1.40;;;1.30;;
7665;SDS011;3875;46.562;4.898;2022-08-20T06:56:07;1.40;;;1.30;;
7665;SDS011;3875;46.562;4.898;2022-08-20T06:58:33;1.40;;;1.27;;
7665;SDS011;3875;46.562;4.898;2022-08-20T07:00:58;1.63;;;1.30;;
7665;SDS011;3875;46.562;4.898;2022-08-20T07:03:24;2.30;;;1.27;;
7665;SDS011;3875;46.562;4.898;2022-08-20T07:05:51;1.80;;;1.50;;
7665;SDS011;3875;46.562;4.898;2022-08-20T07:08:16;1.40;;;1.30;;
7665;SDS011;3875;46.562;4.898;2022-08-20T07:10:43;1.30;;;1.20;;
7665;SDS011;3875;46.562;4.898;2022-08-20T07:13:12;1.00;;;1.00;;
7665;SDS011;3875;46.562;4.898;2022-08-20T07:15:40;1.20;;;1.13;;
7665;SDS011;3875;46.562;4.898;2022-08-20T07:18:07;1.00;;;1.00;;
7665;SDS011;3875;46.562;4.898;2022-08-20T07:20:34;1.90;;;1.00;;
7665;SDS011;3875;46.562;4.898;2022-08-20T07:23:02;1.57;;;1.10;;
7665;SDS011;3875;46.562;4.898;2022-08-20T07:25:29;2.30;;;1.10;;
7665;SDS011;3875;46.562;4.898;2022-08-20T07:28:15;1.10;;;1.10;;
7665;SDS011;3875;46.562;4.898;2022-08-20T07:30:46;1.93;;;1.10;;
7665;SDS011;3875;46.562;4.898;2022-08-20T07:33:31;0.80;;;0.80;;
7665;SDS011;3875;46.562;4.898;2022-08-20T07:35:58;2.00;;;1.00;;
7665;SDS011;3875;46.562;4.898;2022-08-20T07:38:27;1.43;;;1.00;;
7665;SDS011;3875;46.562;4.898;2022-08-20T07:41:05;1.47;;;0.90;;
7665;SDS011;3875;46.562;4.898;2022-08-20T07:43:34;0.90;;;0.90;;
7665;SDS011;3875;46.562;4.898;2022-08-20T07:46:00;0.90;;;0.90;;
7665;SDS011;3875;46.562;4.898;2022-08-20T07:48:33;0.80;;;0.80;;
7665;SDS011;3875;46.562;4.898;2022-08-20T07:51:01;3.33;;;0.83;;
7665;SDS011;3875;46.562;4.898;2022-08-20T07:53:28;0.90;;;0.90;;
7665;SDS011;3875;46.562;4.898;2022-08-20T07:55:54;0.90;;;0.90;;
7665;SDS011;3875;46.562;4.898;2022-08-20T07:58:21;0.80;;;0.80;;
7665;SDS011;3875;46.562;4.898;2022-08-20T08:00:49;1.43;;;0.80;;
7665;SDS011;3875;46.562;4.898;2022-08-20T08:03:15;0.87;;;0.87;;
7665;SDS011;3875;46.562;4.898;2022-08-20T08:05:42;0.80;;;0.80;;
7665;SDS011;3875;46.562;4.898;2022-08-20T08:08:11;0.87;;;0.80;;
7665;SDS011;3875;46.562;4.898;2022-08-20T08:10:41;4.73;;;0.90;;
7665;SDS011;3875;46.562;4.898;2022-08-20T08:13:08;1.47;;;0.90;;
7665;SDS011;3875;46.562;4.898;2022-08-20T08:15:37;0.60;;;0.60;;
7665;SDS011;3875;46.562;4.898;2022-08-20T08:18:11;0.67;;;0.67;;
7665;SDS011;3875;46.562;4.898;2022-08-20T08:20:41;1.10;;;0.80;;
7665;SDS011;3875;46.562;4.898;2022-08-20T08:23:09;0.80;;;0.80;;
7665;SDS011;3875;46.562;4.898;2022-08-20T08:25:38;0.60;;;0.60;;
7665;SDS011;3875;46.562;4.898;2022-08-20T08:28:10;0.70;;;0.70;;
7665;SDS011;3875;46.562;4.898;2022-08-20T08:30:41;0.60;;;0.60;;
7665;SDS011;3875;46.562;4.898;2022-08-20T08:33:16;0.70;;;0.70;;
7665;SDS011;3875;46.562;4.898;2022-08-20T08:35:56;1.93;;;0.90;;
7665;SDS011;3875;46.562;4.898;2022-08-20T08:38:29;0.70;;;0.70;;
7665;SDS011;3875;46.562;4.898;2022-08-20T08:40:57;0.73;;;0.73;;
7665;SDS011;3875;46.562;4.898;2022-08-20T08:43:27;0.80;;;0.80;;
7665;SDS011;3875;46.562;4.898;2022-08-20T08:45:55;0.90;;;0.83;;
7665;SDS011;3875;46.562;4.898;2022-08-20T08:48:31;0.80;;;0.80;;
7665;SDS011;3875;46.562;4.898;2022-08-20T08:51:01;0.70;;;0.70;;
7665;SDS011;3875;46.562;4.898;2022-08-20T08:53:38;0.60;;;0.60;;
7665;SDS011;3875;46.562;4.898;2022-08-20T08:56:13;2.83;;;0.60;;
7665;SDS011;3875;46.562;4.898;2022-08-20T08:58:39;0.60;;;0.60;;
7665;SDS011;3875;46.562;4.898;2022-08-20T09:01:15;0.50;;;0.50;;
7665;SDS011;3875;46.562;4.898;2022-08-20T09:03:44;0.50;;;0.50;;
7665;SDS011;3875;46.562;4.898;2022-08-20T09:06:13;0.60;;;0.60;;
7665;SDS011;3875;46.562;4.898;2022-08-20T09:08:44;0.50;;;0.50;;
7665;SDS011;3875;46.562;4.898;2022-08-20T09:11:16;1.20;;;0.50;;
7665;SDS011;3875;46.562;4.898;2022-08-20T09:13:43;0.80;;;0.80;;
7665;SDS011;3875;46.562;4.898;2022-08-20T09:16:10;0.40;;;0.40;;
7665;SDS011;3875;46.562;4.898;2022-08-20T09:18:37;0.40;;;0.40;;
7665;SDS011;3875;46.562;4.898;2022-08-20T09:21:03;0.50;;;0.50;;
7665;SDS011;3875;46.562;4.898;2022-08-20T09:23:29;0.50;;;0.50;;
7665;SDS011;3875;46.562;4.898;2022-08-20T09:25:55;0.40;;;0.40;;
7665;SDS011;3875;46.562;4.898;2022-08-20T09:28:21;0.40;;;0.40;;
7665;SDS011;3875;46.562;4.898;2022-08-20T09:30:46;0.47;;;0.47;;
7665;SDS011;3875;46.562;4.898;2022-08-20T09:33:12;0.53;;;0.53;;
7665;SDS011;3875;46.562;4.898;2022-08-20T09:35:38;0.40;;;0.40;;
7665;SDS011;3875;46.562;4.898;2022-08-20T09:38:04;0.50;;;0.50;;
7665;SDS011;3875;46.562;4.898;2022-08-20T09:40:30;0.50;;;0.50;;
7665;SDS011;3875;46.562;4.898;2022-08-20T09:42:56;0.60;;;0.60;;
7665;SDS011;3875;46.562;4.898;2022-08-20T09:45:22;0.50;;;0.50;;
7665;SDS011;3875;46.562;4.898;2022-08-20T09:47:48;0.60;;;0.60;;
7665;SDS011;3875;46.562;4.898;2022-08-20T09:50:14;0.40;;;0.40;;
7665;SDS011;3875;46.562;4.898;2022-08-20T09:52:40;0.50;;;0.50;;
7665;SDS011;3875;46.562;4.898;2022-08-20T09:57:50;0.60;;;0.50;;
7665;SDS011;3875;46.562;4.898;2022-08-20T10:00:17;0.60;;;0.60;;
7665;SDS011;3875;46.562;4.898;2022-08-20T10:02:43;0.57;;;0.57;;
7665;SDS011;3875;46.562;4.898;2022-08-20T10:05:09;0.60;;;0.60;;
7665;SDS011;3875;46.562;4.898;2022-08-20T10:07:38;0.60;;;0.60;;
7665;SDS011;3875;46.562;4.898;2022-08-20T10:10:05;0.70;;;0.70;;
7665;SDS011;3875;46.562;4.898;2022-08-20T10:12:33;0.70;;;0.70;;
7665;SDS011;3875;46.562;4.898;2022-08-20T10:14:58;0.80;;;0.80;;
7665;SDS011;3875;46.562;4.898;2022-08-20T10:17:24;0.50;;;0.50;;
7665;SDS011;3875;46.562;4.898;2022-08-20T10:19:50;0.40;;;0.40;;
7665;SDS011;3875;46.562;4.898;2022-08-20T10:22:15;0.50;;;0.50;;
7665;SDS011;3875;46.562;4.898;2022-08-20T10:24:41;0.60;;;0.60;;
7665;SDS011;3875;46.562;4.898;2022-08-20T10:27:07;0.50;;;0.50;;
7665;SDS011;3875;46.562;4.898;2022-08-20T10:29:32;0.97;;;0.60;;
7665;SDS011;3875;46.562;4.898;2022-08-20T10:32:17;0.60;;;0.60;;
7665;SDS011;3875;46.562;4.898;2022-08-20T10:34:43;0.60;;;0.60;;
7665;SDS011;3875;46.562;4.898;2022-08-20T10:37:14;0.70;;;0.57;;
7665;SDS011;3875;46.562;4.898;2022-08-20T10:39:41;0.83;;;0.67;;
7665;SDS011;3875;46.562;4.898;2022-08-20T10:42:07;0.73;;;0.67;;
7665;SDS011;3875;46.562;4.898;2022-08-20T10:44:33;0.60;;;0.60;;
7665;SDS011;3875;46.562;4.898;2022-08-20T10:47:11;0.60;;;0.60;;
7665;SDS011;3875;46.562;4.898;2022-08-20T10:49:42;0.70;;;0.70;;
7665;SDS011;3875;46.562;4.898;2022-08-20T10:52:08;1.83;;;0.50;;
7665;SDS011;3875;46.562;4.898;2022-08-20T10:54:34;0.50;;;0.50;;
7665;SDS011;3875;46.562;4.898;2022-08-20T10:57:00;0.60;;;0.60;;
7665;SDS011;3875;46.562;4.898;2022-08-20T10:59:27;0.50;;;0.50;;
7665;SDS011;3875;46.562;4.898;2022-08-20T11:01:52;0.60;;;0.60;;
7665;SDS011;3875;46.562;4.898;2022-08-20T11:04:18;0.50;;;0.50;;
7665;SDS011;3875;46.562;4.898;2022-08-20T11:06:44;0.50;;;0.50;;
7665;SDS011;3875;46.562;4.898;2022-08-20T11:09:10;0.50;;;0.50;;
7665;SDS011;3875;46.562;4.898;2022-08-20T11:11:35;0.50;;;0.50;;
7665;SDS011;3875;46.562;4.898;2022-08-20T11:14:01;0.40;;;0.40;;
7665;SDS011;3875;46.562;4.898;2022-08-20T11:16:27;1.63;;;0.60;;
7665;SDS011;3875;46.562;4.898;2022-08-20T11:18:53;0.60;;;0.60;;
7665;SDS011;3875;46.562;4.898;2022-08-20T11:21:19;0.60;;;0.60;;
7665;SDS011;3875;46.562;4.898;2022-08-20T11:23:45;0.50;;;0.50;;
7665;SDS011;3875;46.562;4.898;2022-08-20T11:26:13;0.57;;;0.57;;
7665;SDS011;3875;46.562;4.898;2022-08-20T11:28:44;0.50;;;0.50;;
7665;SDS011;3875;46.562;4.898;2022-08-20T11:31:10;0.60;;;0.60;;
7665;SDS011;3875;46.562;4.898;2022-08-20T11:33:36;0.50;;;0.50;;
7665;SDS011;3875;46.562;4.898;2022-08-20T11:36:02;0.60;;;0.60;;
7665;SDS011;3875;46.562;4.898;2022-08-20T11:38:28;0.60;;;0.60;;
7665;SDS011;3875;46.562;4.898;2022-08-20T11:40:54;1.23;;;0.70;;
7665;SDS011;3875;46.562;4.898;2022-08-20T11:43:19;0.50;;;0.50;;
7665;SDS011;3875;46.562;4.898;2022-08-20T11:45:46;0.40;;;0.40;;
7665;SDS011;3875;46.562;4.898;2022-08-20T11:48:14;0.60;;;0.60;;
7665;SDS011;3875;46.562;4.898;2022-08-20T11:50:40;1.27;;;0.63;;
7665;SDS011;3875;46.562;4.898;2022-08-20T11:53:06;0.60;;;0.60;;
7665;SDS011;3875;46.562;4.898;2022-08-20T11:55:32;0.60;;;0.60;;
7665;SDS011;3875;46.562;4.898;2022-08-20T11:57:57;1.20;;;0.87;;
7665;SDS011;3875;46.562;4.898;2022-08-20T12:00:23;1.70;;;0.67;;
7665;SDS011;3875;46.562;4.898;2022-08-20T12:02:49;1.10;;;0.60;;
7665;SDS011;3875;46.562;4.898;2022-08-20T12:05:16;0.50;;;0.50;;
7665;SDS011;3875;46.562;4.898;2022-08-20T12:07:42;0.50;;;0.50;;
7665;SDS011;3875;46.562;4.898;2022-08-20T12:10:08;0.40;;;0.40;;
7665;SDS011;3875;46.562;4.898;2022-08-20T12:12:34;0.60;;;0.60;;
7665;SDS011;3875;46.562;4.898;2022-08-20T12:15:02;0.57;;;0.50;;
7665;SDS011;3875;46.562;4.898;2022-08-20T12:17:29;0.50;;;0.50;;
7665;SDS011;3875;46.562;4.898;2022-08-20T12:19:57;0.50;;;0.50;;
7665;SDS011;3875;46.562;4.898;2022-08-20T12:22:25;0.50;;;0.50;;
7665;SDS011;3875;46.562;4.898;2022-08-20T12:24:54;0.60;;;0.60;;
7665;SDS011;3875;46.562;4.898;2022-08-20T12:27:25;0.60;;;0.60;;
7665;SDS011;3875;46.562;4.898;2022-08-20T12:29:53;0.60;;;0.60;;
7665;SDS011;3875;46.562;4.898;2022-08-20T12:32:21;0.50;;;0.50;;
7665;SDS011;3875;46.562;4.898;2022-08-20T12:34:48;0.60;;;0.60;;
7665;SDS011;3875;46.562;4.898;2022-08-20T12:37:16;0.73;;;0.63;;
7665;SDS011;3875;46.562;4.898;2022-08-20T12:39:45;6.87;;;0.67;;
7665;SDS011;3875;46.562;4.898;2022-08-20T12:42:12;0.50;;;0.50;;
7665;SDS011;3875;46.562;4.898;2022-08-20T12:44:39;0.57;;;0.57;;
7665;SDS011;3875;46.562;4.898;2022-08-20T12:47:09;0.70;;;0.70;;
7665;SDS011;3875;46.562;4.898;2022-08-20T12:49:38;0.50;;;0.50;;
7665;SDS011;3875;46.562;4.898;2022-08-20T12:52:05;0.60;;;0.60;;
7665;SDS011;3875;46.562;4.898;2022-08-20T12:54:32;0.70;;;0.70;;
7665;SDS011;3875;46.562;4.898;2022-08-20T12:56:58;0.65;;;0.65;;
7665;SDS011;3875;46.562;4.898;2022-08-20T12:59:24;0.60;;;0.60;;
7665;SDS011;3875;46.562;4.898;2022-08-20T13:01:51;0.60;;;0.60;;
7665;SDS011;3875;46.562;4.898;2022-08-20T13:04:17;0.50;;;0.50;;
7665;SDS011;3875;46.562;4.898;2022-08-20T13:06:43;0.50;;;0.50;;
7665;SDS011;3875;46.562;4.898;2022-08-20T13:09:10;0.47;;;0.47;;
7665;SDS011;3875;46.562;4.898;2022-08-20T13:11:36;0.40;;;0.40;;
7665;SDS011;3875;46.562;4.898;2022-08-20T13:14:02;0.50;;;0.50;;
7665;SDS011;3875;46.562;4.898;2022-08-20T13:16:27;2.15;;;0.60;;
7665;SDS011;3875;46.562;4.898;2022-08-20T13:18:53;0.50;;;0.50;;
7665;SDS011;3875;46.562;4.898;2022-08-20T13:21:19;1.20;;;0.82;;
7665;SDS011;3875;46.562;4.898;2022-08-20T13:23:44;0.50;;;0.50;;
7665;SDS011;3875;46.562;4.898;2022-08-20T13:26:10;0.60;;;0.60;;
7665;SDS011;3875;46.562;4.898;2022-08-20T13:28:36;0.60;;;0.60;;
7665;SDS011;3875;46.562;4.898;2022-08-20T13:31:01;1.77;;;0.50;;
7665;SDS011;3875;46.562;4.898;2022-08-20T13:33:28;0.50;;;0.50;;
7665;SDS011;3875;46.562;4.898;2022-08-20T13:35:56;0.52;;;0.52;;
7665;SDS011;3875;46.562;4.898;2022-08-20T13:38:22;0.50;;;0.50;;
7665;SDS011;3875;46.562;4.898;2022-08-20T13:40:48;2.63;;;0.63;;
7665;SDS011;3875;46.562;4.898;2022-08-20T13:43:14;0.50;;;0.50;;
7665;SDS011;3875;46.562;4.898;2022-08-20T13:45:40;0.50;;;0.50;;
7665;SDS011;3875;46.562;4.898;2022-08-20T13:48:06;1.88;;;0.60;;
7665;SDS011;3875;46.562;4.898;2022-08-20T13:50:33;0.43;;;0.43;;
7665;SDS011;3875;46.562;4.898;2022-08-20T13:52:59;0.50;;;0.50;;
7665;SDS011;3875;46.562;4.898;2022-08-20T13:55:25;2.17;;;0.50;;
7665;SDS011;3875;46.562;4.898;2022-08-20T13:57:53;0.47;;;0.47;;
7665;SDS011;3875;46.562;4.898;2022-08-20T14:00:22;0.60;;;0.60;;
7665;SDS011;3875;46.562;4.898;2022-08-20T14:02:51;0.50;;;0.50;;
7665;SDS011;3875;46.562;4.898;2022-08-20T14:05:17;0.50;;;0.50;;
7665;SDS011;3875;46.562;4.898;2022-08-20T14:07:43;0.60;;;0.60;;
7665;SDS011;3875;46.562;4.898;2022-08-20T14:10:10;0.60;;;0.60;;
7665;SDS011;3875;46.562;4.898;2022-08-20T14:12:38;0.60;;;0.60;;
7665;SDS011;3875;46.562;4.898;2022-08-20T14:15:05;0.50;;;0.50;;
7665;SDS011;3875;46.562;4.898;2022-08-20T14:17:33;0.50;;;0.50;;
7665;SDS011;3875;46.562;4.898;2022-08-20T14:20:04;0.50;;;0.50;;
7665;SDS011;3875;46.562;4.898;2022-08-20T14:22:36;0.60;;;0.60;;
7665;SDS011;3875;46.562;4.898;2022-08-20T14:25:02;0.50;;;0.50;;
7665;SDS011;3875;46.562;4.898;2022-08-20T14:27:30;0.73;;;0.60;;
7665;SDS011;3875;46.562;4.898;2022-08-20T14:29:57;0.50;;;0.50;;
7665;SDS011;3875;46.562;4.898;2022-08-20T14:32:24;0.50;;;0.50;;
7665;SDS011;3875;46.562;4.898;2022-08-20T14:34:51;1.20;;;0.70;;
7665;SDS011;3875;46.562;4.898;2022-08-20T14:37:23;0.47;;;0.47;;
7665;SDS011;3875;46.562;4.898;2022-08-20T14:39:55;1.13;;;0.70;;
7665;SDS011;3875;46.562;4.898;2022-08-20T14:42:23;1.48;;;0.50;;
7665;SDS011;3875;46.562;4.898;2022-08-20T14:44:51;0.60;;;0.60;;
7665;SDS011;3875;46.562;4.898;2022-08-20T14:49:45;0.60;;;0.60;;
7665;SDS011;3875;46.562;4.898;2022-08-20T14:52:12;0.60;;;0.60;;
7665;SDS011;3875;46.562;4.898;2022-08-20T14:54:38;0.95;;;0.68;;
7665;SDS011;3875;46.562;4.898;2022-08-20T14:57:05;0.60;;;0.60;;
7665;SDS011;3875;46.562;4.898;2022-08-20T14:59:31;1.10;;;0.50;;
7665;SDS011;3875;46.562;4.898;2022-08-20T15:01:58;0.60;;;0.60;;
7665;SDS011;3875;46.562;4.898;2022-08-20T15:04:25;1.65;;;0.60;;
7665;SDS011;3875;46.562;4.898;2022-08-20T15:06:51;1.27;;;0.65;;
7665;SDS011;3875;46.562;4.898;2022-08-20T15:09:17;1.42;;;0.60;;
7665;SDS011;3875;46.562;4.898;2022-08-20T15:11:43;2.47;;;0.70;;
7665;SDS011;3875;46.562;4.898;2022-08-20T15:14:09;0.65;;;0.65;;
7665;SDS011;3875;46.562;4.898;2022-08-20T15:16:35;0.60;;;0.60;;
7665;SDS011;3875;46.562;4.898;2022-08-20T15:19:00;0.63;;;0.63;;
7665;SDS011;3875;46.562;4.898;2022-08-20T15:21:26;0.70;;;0.52;;
7665;SDS011;3875;46.562;4.898;2022-08-20T15:23:52;0.95;;;0.75;;
7665;SDS011;3875;46.562;4.898;2022-08-20T15:26:18;0.50;;;0.50;;
7665;SDS011;3875;46.562;4.898;2022-08-20T15:28:45;0.73;;;0.68;;
7665;SDS011;3875;46.562;4.898;2022-08-20T15:31:11;0.60;;;0.60;;
7665;SDS011;3875;46.562;4.898;2022-08-20T15:33:37;0.90;;;0.65;;
7665;SDS011;3875;46.562;4.898;2022-08-20T15:36:04;0.60;;;0.60;;
7665;SDS011;3875;46.562;4.898;2022-08-20T15:38:31;3.67;;;1.08;;